sensor_id;sensor_type;location;lat;lon;timestamp;P1;durP1;ratioP1;P2;durP2;ratioP2
1563;SDS011;775;51.958;7.976;2023-07-24T00:02:24;13.10;;;3.17;;
1563;SDS011;775;51.958;7.976;2023-07-24T00:04:51;14.93;;;2.77;;
1563;SDS011;775;51.958;7.976;2023-07-24T00:07:18;12.73;;;3.00;;
1563;SDS011;775;51.958;7.976;2023-07-24T00:09:46;14.27;;;3.07;;
1563;SDS011;775;51.958;7.976;2023-07-24T00:12:13;13.00;;;3.00;;
1563;SDS011;775;51.958;7.976;2023-07-24T00:14:40;12.57;;;3.00;;
1563;SDS011;775;51.958;7.976;2023-07-24T00:17:08;13.30;;;3.20;;
1563;SDS011;775;51.958;7.976;2023-07-24T00:19:35;13.00;;;3.10;;
1563;SDS011;775;51.958;7.976;2023-07-24T00:22:02;13.60;;;3.23;;
1563;SDS011;775;51.958;7.976;2023-07-24T00:24:30;13.07;;;3.17;;
1563;SDS011;775;51.958;7.976;2023-07-24T00:26:58;13.73;;;3.27;;
1563;SDS011;775;51.958;7.976;2023-07-24T00:29:25;13.17;;;3.10;;
1563;SDS011;775;51.958;7.976;2023-07-24T00:31:52;12.63;;;3.00;;
1563;SDS011;775;51.958;7.976;2023-07-24T00:34:20;12.10;;;2.83;;
1563;SDS011;775;51.958;7.976;2023-07-24T00:36:47;13.67;;;2.70;;
1563;SDS011;775;51.958;7.976;2023-07-24T00:39:14;14.03;;;3.00;;
1563;SDS011;775;51.958;7.976;2023-07-24T00:41:42;13.70;;;3.20;;
1563;SDS011;775;51.958;7.976;2023-07-24T00:44:09;13.00;;;2.73;;
1563;SDS011;775;51.958;7.976;2023-07-24T00:46:36;14.27;;;3.10;;
1563;SDS011;775;51.958;7.976;2023-07-24T00:49:03;14.97;;;3.33;;
1563;SDS011;775;51.958;7.976;2023-07-24T00:51:32;13.80;;;2.53;;
1563;SDS011;775;51.958;7.976;2023-07-24T00:54:00;14.10;;;2.63;;
1563;SDS011;775;51.958;7.976;2023-07-24T00:56:27;14.30;;;2.93;;
1563;SDS011;775;51.958;7.976;2023-07-24T00:58:55;13.60;;;2.90;;
1563;SDS011;775;51.958;7.976;2023-07-24T01:01:22;13.30;;;2.90;;
1563;SDS011;775;51.958;7.976;2023-07-24T01:03:49;13.00;;;2.80;;
1563;SDS011;775;51.958;7.976;2023-07-24T01:06:18;28.50;;;5.10;;
1563;SDS011;775;51.958;7.976;2023-07-24T01:08:46;12.70;;;2.57;;
1563;SDS011;775;51.958;7.976;2023-07-24T01:11:15;14.80;;;2.80;;
1563;SDS011;775;51.958;7.976;2023-07-24T01:13:44;13.00;;;2.90;;
1563;SDS011;775;51.958;7.976;2023-07-24T01:16:14;12.83;;;2.60;;
1563;SDS011;775;51.958;7.976;2023-07-24T01:18:41;12.70;;;2.70;;
1563;SDS011;775;51.958;7.976;2023-07-24T01:21:09;14.33;;;2.90;;
1563;SDS011;775;51.958;7.976;2023-07-24T01:23:43;15.80;;;3.03;;
1563;SDS011;775;51.958;7.976;2023-07-24T01:26:14;15.20;;;3.33;;
1563;SDS011;775;51.958;7.976;2023-07-24T01:28:41;13.53;;;2.63;;
1563;SDS011;775;51.958;7.976;2023-07-24T01:31:08;13.63;;;2.97;;
1563;SDS011;775;51.958;7.976;2023-07-24T01:33:36;12.93;;;3.03;;
1563;SDS011;775;51.958;7.976;2023-07-24T01:36:04;12.80;;;2.90;;
1563;SDS011;775;51.958;7.976;2023-07-24T01:38:32;13.03;;;2.77;;
1563;SDS011;775;51.958;7.976;2023-07-24T01:41:01;15.00;;;2.90;;
1563;SDS011;775;51.958;7.976;2023-07-24T01:43:30;17.53;;;3.10;;
1563;SDS011;775;51.958;7.976;2023-07-24T01:45:58;12.90;;;2.80;;
1563;SDS011;775;51.958;7.976;2023-07-24T01:48:25;12.43;;;2.40;;
1563;SDS011;775;51.958;7.976;2023-07-24T01:50:52;12.87;;;2.67;;
1563;SDS011;775;51.958;7.976;2023-07-24T01:53:19;12.90;;;2.77;;
1563;SDS011;775;51.958;7.976;2023-07-24T01:55:46;12.63;;;2.67;;
1563;SDS011;775;51.958;7.976;2023-07-24T01:58:13;13.50;;;2.53;;
1563;SDS011;775;51.958;7.976;2023-07-24T02:00:42;13.07;;;2.73;;
1563;SDS011;775;51.958;7.976;2023-07-24T02:03:09;18.90;;;3.03;;
1563;SDS011;775;51.958;7.976;2023-07-24T02:05:36;15.33;;;2.73;;
1563;SDS011;775;51.958;7.976;2023-07-24T02:08:03;14.20;;;3.10;;
1563;SDS011;775;51.958;7.976;2023-07-24T02:10:30;14.53;;;2.83;;
1563;SDS011;775;51.958;7.976;2023-07-24T02:12:57;15.83;;;3.00;;
1563;SDS011;775;51.958;7.976;2023-07-24T02:15:24;14.37;;;3.20;;
1563;SDS011;775;51.958;7.976;2023-07-24T02:17:53;14.70;;;3.30;;
1563;SDS011;775;51.958;7.976;2023-07-24T02:20:20;13.87;;;3.03;;
1563;SDS011;775;51.958;7.976;2023-07-24T02:22:47;12.90;;;3.00;;
1563;SDS011;775;51.958;7.976;2023-07-24T02:25:15;13.90;;;3.00;;
1563;SDS011;775;51.958;7.976;2023-07-24T02:27:42;14.10;;;3.80;;
1563;SDS011;775;51.958;7.976;2023-07-24T02:30:09;13.33;;;3.20;;
1563;SDS011;775;51.958;7.976;2023-07-24T02:32:36;13.80;;;2.93;;
1563;SDS011;775;51.958;7.976;2023-07-24T02:35:05;15.43;;;3.27;;
1563;SDS011;775;51.958;7.976;2023-07-24T02:37:33;13.53;;;2.93;;
1563;SDS011;775;51.958;7.976;2023-07-24T02:40:00;14.27;;;2.73;;
1563;SDS011;775;51.958;7.976;2023-07-24T02:42:27;15.27;;;3.40;;
1563;SDS011;775;51.958;7.976;2023-07-24T02:44:54;14.00;;;3.53;;
1563;SDS011;775;51.958;7.976;2023-07-24T02:47:21;13.60;;;3.43;;
1563;SDS011;775;51.958;7.976;2023-07-24T02:49:48;14.20;;;3.40;;
1563;SDS011;775;51.958;7.976;2023-07-24T02:52:18;13.13;;;3.30;;
1563;SDS011;775;51.958;7.976;2023-07-24T02:54:45;13.73;;;2.67;;
1563;SDS011;775;51.958;7.976;2023-07-24T02:57:12;12.53;;;3.13;;
1563;SDS011;775;51.958;7.976;2023-07-24T02:59:39;13.60;;;2.90;;
1563;SDS011;775;51.958;7.976;2023-07-24T03:02:06;13.60;;;3.10;;
1563;SDS011;775;51.958;7.976;2023-07-24T03:04:33;13.30;;;3.40;;
1563;SDS011;775;51.958;7.976;2023-07-24T03:07:00;13.90;;;2.97;;
1563;SDS011;775;51.958;7.976;2023-07-24T03:09:29;14.43;;;3.20;;
1563;SDS011;775;51.958;7.976;2023-07-24T03:11:56;14.93;;;3.40;;
1563;SDS011;775;51.958;7.976;2023-07-24T03:14:23;14.40;;;3.60;;
1563;SDS011;775;51.958;7.976;2023-07-24T03:16:51;14.13;;;3.20;;
1563;SDS011;775;51.958;7.976;2023-07-24T03:19:18;14.83;;;3.30;;
1563;SDS011;775;51.958;7.976;2023-07-24T03:21:45;13.40;;;3.20;;
1563;SDS011;775;51.958;7.976;2023-07-24T03:24:12;16.80;;;2.70;;
1563;SDS011;775;51.958;7.976;2023-07-24T03:26:40;13.97;;;3.00;;
1563;SDS011;775;51.958;7.976;2023-07-24T03:29:08;12.67;;;3.03;;
1563;SDS011;775;51.958;7.976;2023-07-24T03:31:35;13.40;;;2.97;;
1563;SDS011;775;51.958;7.976;2023-07-24T03:34:02;15.03;;;3.00;;
1563;SDS011;775;51.958;7.976;2023-07-24T03:36:29;14.00;;;3.03;;
1563;SDS011;775;51.958;7.976;2023-07-24T03:38:56;13.20;;;2.93;;
1563;SDS011;775;51.958;7.976;2023-07-24T03:41:23;12.80;;;3.00;;
1563;SDS011;775;51.958;7.976;2023-07-24T03:43:51;13.10;;;3.03;;
1563;SDS011;775;51.958;7.976;2023-07-24T03:46:18;14.30;;;3.10;;
1563;SDS011;775;51.958;7.976;2023-07-24T03:48:45;12.80;;;3.17;;
1563;SDS011;775;51.958;7.976;2023-07-24T03:51:14;13.70;;;2.70;;
1563;SDS011;775;51.958;7.976;2023-07-24T03:53:41;13.53;;;3.30;;
1563;SDS011;775;51.958;7.976;2023-07-24T03:56:09;13.90;;;2.90;;
1563;SDS011;775;51.958;7.976;2023-07-24T03:58:36;14.53;;;3.40;;
1563;SDS011;775;51.958;7.976;2023-07-24T04:01:05;14.17;;;3.73;;
1563;SDS011;775;51.958;7.976;2023-07-24T04:03:32;14.90;;;3.27;;
1563;SDS011;775;51.958;7.976;2023-07-24T04:06:00;15.10;;;3.33;;
1563;SDS011;775;51.958;7.976;2023-07-24T04:08:27;15.27;;;3.30;;
1563;SDS011;775;51.958;7.976;2023-07-24T04:10:54;16.00;;;3.50;;
1563;SDS011;775;51.958;7.976;2023-07-24T04:13:21;13.07;;;3.10;;
1563;SDS011;775;51.958;7.976;2023-07-24T04:15:48;16.77;;;3.63;;
1563;SDS011;775;51.958;7.976;2023-07-24T04:18:17;13.97;;;3.10;;
1563;SDS011;775;51.958;7.976;2023-07-24T04:20:44;14.97;;;3.17;;
1563;SDS011;775;51.958;7.976;2023-07-24T04:23:11;12.90;;;3.03;;
1563;SDS011;775;51.958;7.976;2023-07-24T04:25:38;14.00;;;3.20;;
1563;SDS011;775;51.958;7.976;2023-07-24T04:28:05;15.07;;;3.50;;
1563;SDS011;775;51.958;7.976;2023-07-24T04:30:32;13.50;;;3.80;;
1563;SDS011;775;51.958;7.976;2023-07-24T04:32:59;16.37;;;3.37;;
1563;SDS011;775;51.958;7.976;2023-07-24T04:35:28;15.33;;;3.20;;
1563;SDS011;775;51.958;7.976;2023-07-24T04:37:55;17.53;;;3.30;;
1563;SDS011;775;51.958;7.976;2023-07-24T04:40:22;17.87;;;3.03;;
1563;SDS011;775;51.958;7.976;2023-07-24T04:42:49;13.97;;;3.17;;
1563;SDS011;775;51.958;7.976;2023-07-24T04:45:17;14.13;;;3.20;;
1563;SDS011;775;51.958;7.976;2023-07-24T04:47:44;15.17;;;4.13;;
1563;SDS011;775;51.958;7.976;2023-07-24T04:50:11;15.00;;;4.03;;
1563;SDS011;775;51.958;7.976;2023-07-24T04:52:39;13.53;;;3.47;;
1563;SDS011;775;51.958;7.976;2023-07-24T04:55:06;13.40;;;3.83;;
1563;SDS011;775;51.958;7.976;2023-07-24T04:57:33;15.30;;;3.40;;
1563;SDS011;775;51.958;7.976;2023-07-24T05:00:00;16.10;;;3.80;;
1563;SDS011;775;51.958;7.976;2023-07-24T05:02:27;14.60;;;3.53;;
1563;SDS011;775;51.958;7.976;2023-07-24T05:04:54;13.67;;;3.50;;
1563;SDS011;775;51.958;7.976;2023-07-24T05:07:21;15.60;;;3.40;;
1563;SDS011;775;51.958;7.976;2023-07-24T05:09:50;14.23;;;3.90;;
1563;SDS011;775;51.958;7.976;2023-07-24T05:12:17;14.17;;;3.27;;
1563;SDS011;775;51.958;7.976;2023-07-24T05:14:44;14.30;;;3.60;;
1563;SDS011;775;51.958;7.976;2023-07-24T05:17:11;14.93;;;4.13;;
1563;SDS011;775;51.958;7.976;2023-07-24T05:19:38;16.63;;;4.17;;
1563;SDS011;775;51.958;7.976;2023-07-24T05:22:05;19.63;;;3.43;;
1563;SDS011;775;51.958;7.976;2023-07-24T05:24:32;14.20;;;3.23;;
1563;SDS011;775;51.958;7.976;2023-07-24T05:27:01;15.73;;;3.63;;
1563;SDS011;775;51.958;7.976;2023-07-24T05:29:28;17.33;;;3.67;;
1563;SDS011;775;51.958;7.976;2023-07-24T05:31:55;13.77;;;2.93;;
1563;SDS011;775;51.958;7.976;2023-07-24T05:34:23;14.43;;;3.90;;
1563;SDS011;775;51.958;7.976;2023-07-24T05:36:50;12.80;;;3.10;;
1563;SDS011;775;51.958;7.976;2023-07-24T05:39:17;14.10;;;3.30;;
1563;SDS011;775;51.958;7.976;2023-07-24T05:41:45;13.63;;;3.00;;
1563;SDS011;775;51.958;7.976;2023-07-24T05:44:15;14.93;;;3.97;;
1563;SDS011;775;51.958;7.976;2023-07-24T05:46:42;15.53;;;3.47;;
1563;SDS011;775;51.958;7.976;2023-07-24T05:49:09;14.57;;;3.60;;
1563;SDS011;775;51.958;7.976;2023-07-24T05:51:36;13.23;;;3.33;;
1563;SDS011;775;51.958;7.976;2023-07-24T05:54:03;14.83;;;3.70;;
1563;SDS011;775;51.958;7.976;2023-07-24T05:56:30;15.83;;;3.60;;
1563;SDS011;775;51.958;7.976;2023-07-24T05:58:57;20.23;;;4.23;;
1563;SDS011;775;51.958;7.976;2023-07-24T06:01:26;14.10;;;3.87;;
1563;SDS011;775;51.958;7.976;2023-07-24T06:03:53;14.97;;;4.23;;
1563;SDS011;775;51.958;7.976;2023-07-24T06:06:20;14.47;;;3.47;;
1563;SDS011;775;51.958;7.976;2023-07-24T06:08:47;15.80;;;4.00;;
1563;SDS011;775;51.958;7.976;2023-07-24T06:11:15;15.33;;;3.50;;
1563;SDS011;775;51.958;7.976;2023-07-24T06:13:43;14.73;;;3.97;;
1563;SDS011;775;51.958;7.976;2023-07-24T06:16:10;13.17;;;3.90;;
1563;SDS011;775;51.958;7.976;2023-07-24T06:18:40;15.77;;;3.37;;
1563;SDS011;775;51.958;7.976;2023-07-24T06:21:07;13.63;;;3.47;;
1563;SDS011;775;51.958;7.976;2023-07-24T06:23:35;13.93;;;3.63;;
1563;SDS011;775;51.958;7.976;2023-07-24T06:26:02;13.27;;;3.30;;
1563;SDS011;775;51.958;7.976;2023-07-24T06:28:29;13.30;;;3.60;;
1563;SDS011;775;51.958;7.976;2023-07-24T06:30:57;17.60;;;3.60;;
1563;SDS011;775;51.958;7.976;2023-07-24T06:33:24;13.10;;;3.50;;
1563;SDS011;775;51.958;7.976;2023-07-24T06:35:52;14.30;;;4.00;;
1563;SDS011;775;51.958;7.976;2023-07-24T06:38:19;15.20;;;4.03;;
1563;SDS011;775;51.958;7.976;2023-07-24T06:40:47;14.30;;;4.50;;
1563;SDS011;775;51.958;7.976;2023-07-24T06:43:14;15.13;;;4.20;;
1563;SDS011;775;51.958;7.976;2023-07-24T06:45:41;15.27;;;4.87;;
1563;SDS011;775;51.958;7.976;2023-07-24T06:48:08;16.73;;;5.00;;
1563;SDS011;775;51.958;7.976;2023-07-24T06:50:35;13.87;;;4.20;;
1563;SDS011;775;51.958;7.976;2023-07-24T06:53:04;18.20;;;4.57;;
1563;SDS011;775;51.958;7.976;2023-07-24T06:55:31;15.97;;;4.60;;
1563;SDS011;775;51.958;7.976;2023-07-24T06:57:58;14.73;;;4.60;;
1563;SDS011;775;51.958;7.976;2023-07-24T07:00:25;15.50;;;5.40;;
1563;SDS011;775;51.958;7.976;2023-07-24T07:02:52;14.23;;;4.20;;
1563;SDS011;775;51.958;7.976;2023-07-24T07:05:19;14.50;;;4.43;;
1563;SDS011;775;51.958;7.976;2023-07-24T07:07:46;14.13;;;4.30;;
1563;SDS011;775;51.958;7.976;2023-07-24T07:10:15;15.73;;;4.67;;
1563;SDS011;775;51.958;7.976;2023-07-24T07:12:42;14.57;;;5.00;;
1563;SDS011;775;51.958;7.976;2023-07-24T07:15:09;15.63;;;5.07;;
1563;SDS011;775;51.958;7.976;2023-07-24T07:17:36;14.90;;;4.50;;
1563;SDS011;775;51.958;7.976;2023-07-24T07:20:04;17.37;;;5.60;;
1563;SDS011;775;51.958;7.976;2023-07-24T07:22:31;15.57;;;5.30;;
1563;SDS011;775;51.958;7.976;2023-07-24T07:24:58;16.90;;;5.53;;
1563;SDS011;775;51.958;7.976;2023-07-24T07:27:27;15.80;;;5.60;;
1563;SDS011;775;51.958;7.976;2023-07-24T07:29:54;15.67;;;5.10;;
1563;SDS011;775;51.958;7.976;2023-07-24T07:32:21;19.90;;;5.17;;
1563;SDS011;775;51.958;7.976;2023-07-24T07:34:48;15.80;;;5.37;;
1563;SDS011;775;51.958;7.976;2023-07-24T07:37:15;14.60;;;5.10;;
1563;SDS011;775;51.958;7.976;2023-07-24T07:39:42;15.80;;;6.37;;
1563;SDS011;775;51.958;7.976;2023-07-24T07:42:09;14.50;;;5.53;;
1563;SDS011;775;51.958;7.976;2023-07-24T07:44:37;16.23;;;5.33;;
1563;SDS011;775;51.958;7.976;2023-07-24T07:47:04;14.93;;;5.37;;
1563;SDS011;775;51.958;7.976;2023-07-24T07:49:32;16.00;;;5.23;;
1563;SDS011;775;51.958;7.976;2023-07-24T07:51:59;16.00;;;5.00;;
1563;SDS011;775;51.958;7.976;2023-07-24T07:54:26;16.00;;;4.80;;
1563;SDS011;775;51.958;7.976;2023-07-24T07:56:53;17.13;;;4.77;;
1563;SDS011;775;51.958;7.976;2023-07-24T07:59:20;15.13;;;5.40;;
1563;SDS011;775;51.958;7.976;2023-07-24T08:01:48;15.60;;;5.13;;
1563;SDS011;775;51.958;7.976;2023-07-24T08:04:15;16.37;;;5.30;;
1563;SDS011;775;51.958;7.976;2023-07-24T08:06:43;16.43;;;5.13;;
1563;SDS011;775;51.958;7.976;2023-07-24T08:09:10;15.97;;;5.50;;
1563;SDS011;775;51.958;7.976;2023-07-24T08:11:37;15.80;;;4.40;;
1563;SDS011;775;51.958;7.976;2023-07-24T08:14:05;17.40;;;5.43;;
1563;SDS011;775;51.958;7.976;2023-07-24T08:16:32;15.70;;;4.83;;
1563;SDS011;775;51.958;7.976;2023-07-24T08:19:00;15.20;;;5.77;;
1563;SDS011;775;51.958;7.976;2023-07-24T08:21:27;16.80;;;4.90;;
1563;SDS011;775;51.958;7.976;2023-07-24T08:23:54;15.97;;;5.30;;
1563;SDS011;775;51.958;7.976;2023-07-24T08:26:22;15.27;;;5.17;;
1563;SDS011;775;51.958;7.976;2023-07-24T08:28:51;16.30;;;5.67;;
1563;SDS011;775;51.958;7.976;2023-07-24T08:31:18;14.83;;;5.30;;
1563;SDS011;775;51.958;7.976;2023-07-24T08:33:45;17.23;;;6.10;;
1563;SDS011;775;51.958;7.976;2023-07-24T08:36:13;15.87;;;5.43;;
1563;SDS011;775;51.958;7.976;2023-07-24T08:38:40;23.03;;;5.70;;
1563;SDS011;775;51.958;7.976;2023-07-24T08:41:08;15.83;;;5.80;;
1563;SDS011;775;51.958;7.976;2023-07-24T08:43:37;16.50;;;6.40;;
1563;SDS011;775;51.958;7.976;2023-07-24T08:46:04;15.57;;;6.03;;
1563;SDS011;775;51.958;7.976;2023-07-24T08:48:32;18.90;;;6.13;;
1563;SDS011;775;51.958;7.976;2023-07-24T08:51:01;15.77;;;5.67;;
1563;SDS011;775;51.958;7.976;2023-07-24T08:53:29;18.03;;;5.70;;
1563;SDS011;775;51.958;7.976;2023-07-24T08:55:57;16.63;;;6.00;;
1563;SDS011;775;51.958;7.976;2023-07-24T08:58:26;15.50;;;6.70;;
1563;SDS011;775;51.958;7.976;2023-07-24T09:00:53;15.07;;;6.23;;
1563;SDS011;775;51.958;7.976;2023-07-24T09:03:20;15.80;;;6.30;;
1563;SDS011;775;51.958;7.976;2023-07-24T09:05:47;16.30;;;5.87;;
1563;SDS011;775;51.958;7.976;2023-07-24T09:08:15;15.17;;;4.87;;
1563;SDS011;775;51.958;7.976;2023-07-24T09:10:43;14.40;;;4.63;;
1563;SDS011;775;51.958;7.976;2023-07-24T09:13:11;12.70;;;3.63;;
1563;SDS011;775;51.958;7.976;2023-07-24T09:15:39;14.37;;;3.90;;
1563;SDS011;775;51.958;7.976;2023-07-24T09:18:06;13.47;;;3.70;;
1563;SDS011;775;51.958;7.976;2023-07-24T09:20:38;12.60;;;3.10;;
1563;SDS011;775;51.958;7.976;2023-07-24T09:23:05;13.07;;;3.40;;
1563;SDS011;775;51.958;7.976;2023-07-24T09:25:33;13.10;;;3.07;;
1563;SDS011;775;51.958;7.976;2023-07-24T09:28:08;12.33;;;2.77;;
1563;SDS011;775;51.958;7.976;2023-07-24T09:30:35;12.50;;;2.77;;
1563;SDS011;775;51.958;7.976;2023-07-24T09:33:02;12.30;;;3.17;;
1563;SDS011;775;51.958;7.976;2023-07-24T09:35:29;12.60;;;3.10;;
1563;SDS011;775;51.958;7.976;2023-07-24T09:38:04;11.90;;;2.50;;
1563;SDS011;775;51.958;7.976;2023-07-24T09:40:37;12.67;;;2.63;;
1563;SDS011;775;51.958;7.976;2023-07-24T09:43:15;12.37;;;2.87;;
1563;SDS011;775;51.958;7.976;2023-07-24T09:45:42;12.30;;;2.23;;
1563;SDS011;775;51.958;7.976;2023-07-24T09:48:10;13.47;;;2.47;;
1563;SDS011;775;51.958;7.976;2023-07-24T09:50:40;11.83;;;2.20;;
1563;SDS011;775;51.958;7.976;2023-07-24T09:53:08;11.70;;;2.20;;
1563;SDS011;775;51.958;7.976;2023-07-24T09:55:41;11.90;;;1.97;;
1563;SDS011;775;51.958;7.976;2023-07-24T09:58:10;12.00;;;2.60;;
1563;SDS011;775;51.958;7.976;2023-07-24T10:00:39;11.60;;;2.20;;
1563;SDS011;775;51.958;7.976;2023-07-24T10:03:06;12.10;;;2.50;;
1563;SDS011;775;51.958;7.976;2023-07-24T10:05:33;12.20;;;2.47;;
1563;SDS011;775;51.958;7.976;2023-07-24T10:08:00;12.13;;;2.53;;
1563;SDS011;775;51.958;7.976;2023-07-24T10:10:27;11.77;;;2.17;;
1563;SDS011;775;51.958;7.976;2023-07-24T10:12:57;13.10;;;2.67;;
1563;SDS011;775;51.958;7.976;2023-07-24T10:15:24;11.53;;;2.07;;
1563;SDS011;775;51.958;7.976;2023-07-24T10:18:00;11.90;;;2.27;;
1563;SDS011;775;51.958;7.976;2023-07-24T10:20:32;11.80;;;2.40;;
1563;SDS011;775;51.958;7.976;2023-07-24T10:23:00;12.00;;;2.10;;
1563;SDS011;775;51.958;7.976;2023-07-24T10:25:28;11.37;;;1.83;;
1563;SDS011;775;51.958;7.976;2023-07-24T10:28:00;11.77;;;2.20;;
1563;SDS011;775;51.958;7.976;2023-07-24T10:30:30;12.07;;;2.43;;
1563;SDS011;775;51.958;7.976;2023-07-24T10:33:04;12.40;;;2.23;;
1563;SDS011;775;51.958;7.976;2023-07-24T10:35:36;12.10;;;2.20;;
1563;SDS011;775;51.958;7.976;2023-07-24T10:38:03;12.40;;;2.50;;
1563;SDS011;775;51.958;7.976;2023-07-24T10:40:30;12.97;;;2.60;;
1563;SDS011;775;51.958;7.976;2023-07-24T10:43:01;12.10;;;2.33;;
1563;SDS011;775;51.958;7.976;2023-07-24T10:45:37;12.27;;;2.57;;
1563;SDS011;775;51.958;7.976;2023-07-24T10:48:06;11.93;;;2.50;;
1563;SDS011;775;51.958;7.976;2023-07-24T10:50:36;12.90;;;2.70;;
1563;SDS011;775;51.958;7.976;2023-07-24T10:53:04;12.33;;;2.67;;
1563;SDS011;775;51.958;7.976;2023-07-24T10:55:31;13.07;;;2.73;;
1563;SDS011;775;51.958;7.976;2023-07-24T10:57:58;17.53;;;2.60;;
1563;SDS011;775;51.958;7.976;2023-07-24T11:00:25;13.30;;;2.90;;
1563;SDS011;775;51.958;7.976;2023-07-24T11:02:52;12.40;;;2.60;;
1563;SDS011;775;51.958;7.976;2023-07-24T11:05:21;12.90;;;2.60;;
1563;SDS011;775;51.958;7.976;2023-07-24T11:07:48;12.47;;;2.60;;
1563;SDS011;775;51.958;7.976;2023-07-24T11:10:16;12.60;;;2.67;;
1563;SDS011;775;51.958;7.976;2023-07-24T11:12:43;12.97;;;2.93;;
1563;SDS011;775;51.958;7.976;2023-07-24T11:15:10;12.63;;;2.63;;
1563;SDS011;775;51.958;7.976;2023-07-24T11:17:39;15.43;;;2.30;;
1563;SDS011;775;51.958;7.976;2023-07-24T11:20:07;13.47;;;2.50;;
1563;SDS011;775;51.958;7.976;2023-07-24T11:22:35;14.73;;;2.70;;
1563;SDS011;775;51.958;7.976;2023-07-24T11:25:04;14.10;;;2.50;;
1563;SDS011;775;51.958;7.976;2023-07-24T11:27:32;13.20;;;3.00;;
1563;SDS011;775;51.958;7.976;2023-07-24T11:29:59;12.33;;;2.20;;
1563;SDS011;775;51.958;7.976;2023-07-24T11:32:26;12.90;;;2.83;;
1563;SDS011;775;51.958;7.976;2023-07-24T11:34:53;12.77;;;3.43;;
1563;SDS011;775;51.958;7.976;2023-07-24T11:37:20;15.80;;;4.83;;
1563;SDS011;775;51.958;7.976;2023-07-24T11:39:59;16.50;;;5.07;;
1563;SDS011;775;51.958;7.976;2023-07-24T11:42:29;14.80;;;5.30;;
1563;SDS011;775;51.958;7.976;2023-07-24T11:45:00;13.93;;;3.90;;
1563;SDS011;775;51.958;7.976;2023-07-24T11:47:27;15.00;;;5.20;;
1563;SDS011;775;51.958;7.976;2023-07-24T11:49:59;14.73;;;4.60;;
1563;SDS011;775;51.958;7.976;2023-07-24T11:52:26;16.87;;;4.60;;
1563;SDS011;775;51.958;7.976;2023-07-24T11:55:06;14.40;;;5.07;;
1563;SDS011;775;51.958;7.976;2023-07-24T11:57:33;14.40;;;4.67;;
1563;SDS011;775;51.958;7.976;2023-07-24T12:00:00;17.03;;;4.43;;
1563;SDS011;775;51.958;7.976;2023-07-24T12:02:28;13.47;;;4.03;;
1563;SDS011;775;51.958;7.976;2023-07-24T12:04:55;14.57;;;4.13;;
1563;SDS011;775;51.958;7.976;2023-07-24T12:07:27;14.03;;;4.17;;
1563;SDS011;775;51.958;7.976;2023-07-24T12:09:55;14.53;;;4.20;;
1563;SDS011;775;51.958;7.976;2023-07-24T12:12:23;13.10;;;3.90;;
1563;SDS011;775;51.958;7.976;2023-07-24T12:14:51;13.80;;;4.30;;
1563;SDS011;775;51.958;7.976;2023-07-24T12:17:18;15.47;;;4.57;;
1563;SDS011;775;51.958;7.976;2023-07-24T12:19:46;17.43;;;4.53;;
1563;SDS011;775;51.958;7.976;2023-07-24T12:22:13;15.50;;;4.80;;
1563;SDS011;775;51.958;7.976;2023-07-24T12:24:40;14.07;;;4.10;;
1563;SDS011;775;51.958;7.976;2023-07-24T12:27:07;13.90;;;4.23;;
1563;SDS011;775;51.958;7.976;2023-07-24T12:29:36;15.93;;;4.97;;
1563;SDS011;775;51.958;7.976;2023-07-24T12:32:03;16.70;;;4.90;;
1563;SDS011;775;51.958;7.976;2023-07-24T12:34:30;15.03;;;4.80;;
1563;SDS011;775;51.958;7.976;2023-07-24T12:36:57;14.10;;;4.90;;
1563;SDS011;775;51.958;7.976;2023-07-24T12:39:24;14.93;;;4.77;;
1563;SDS011;775;51.958;7.976;2023-07-24T12:41:51;15.27;;;4.30;;
1563;SDS011;775;51.958;7.976;2023-07-24T12:44:18;16.40;;;4.33;;
1563;SDS011;775;51.958;7.976;2023-07-24T12:46:47;17.87;;;5.20;;
1563;SDS011;775;51.958;7.976;2023-07-24T12:49:14;15.97;;;5.30;;
1563;SDS011;775;51.958;7.976;2023-07-24T12:51:41;15.30;;;5.10;;
1563;SDS011;775;51.958;7.976;2023-07-24T12:54:08;14.90;;;4.50;;
1563;SDS011;775;51.958;7.976;2023-07-24T12:56:35;15.07;;;4.80;;
1563;SDS011;775;51.958;7.976;2023-07-24T12:59:02;14.50;;;4.70;;
1563;SDS011;775;51.958;7.976;2023-07-24T13:01:29;14.43;;;4.93;;
1563;SDS011;775;51.958;7.976;2023-07-24T13:03:58;16.67;;;4.97;;
1563;SDS011;775;51.958;7.976;2023-07-24T13:06:25;14.30;;;4.53;;
1563;SDS011;775;51.958;7.976;2023-07-24T13:08:52;13.43;;;4.20;;
1563;SDS011;775;51.958;7.976;2023-07-24T13:11:19;14.60;;;4.27;;
1563;SDS011;775;51.958;7.976;2023-07-24T13:13:46;15.40;;;4.97;;
1563;SDS011;775;51.958;7.976;2023-07-24T13:16:15;14.03;;;4.13;;
1563;SDS011;775;51.958;7.976;2023-07-24T13:18:42;16.87;;;4.13;;
1563;SDS011;775;51.958;7.976;2023-07-24T13:21:10;14.00;;;3.90;;
1563;SDS011;775;51.958;7.976;2023-07-24T13:23:39;13.50;;;3.50;;
1563;SDS011;775;51.958;7.976;2023-07-24T13:26:06;14.23;;;4.50;;
1563;SDS011;775;51.958;7.976;2023-07-24T13:28:35;14.53;;;3.87;;
1563;SDS011;775;51.958;7.976;2023-07-24T13:31:10;14.90;;;3.97;;
1563;SDS011;775;51.958;7.976;2023-07-24T13:33:37;14.00;;;3.87;;
1563;SDS011;775;51.958;7.976;2023-07-24T13:36:05;15.70;;;4.93;;
1563;SDS011;775;51.958;7.976;2023-07-24T13:38:33;13.50;;;4.30;;
1563;SDS011;775;51.958;7.976;2023-07-24T13:41:00;14.57;;;4.87;;
1563;SDS011;775;51.958;7.976;2023-07-24T13:43:27;13.80;;;4.07;;
1563;SDS011;775;51.958;7.976;2023-07-24T13:45:54;12.50;;;3.40;;
1563;SDS011;775;51.958;7.976;2023-07-24T13:48:22;13.97;;;4.00;;
1563;SDS011;775;51.958;7.976;2023-07-24T13:50:49;16.07;;;4.27;;
1563;SDS011;775;51.958;7.976;2023-07-24T13:53:16;13.97;;;4.00;;
1563;SDS011;775;51.958;7.976;2023-07-24T13:55:45;13.20;;;3.30;;
1563;SDS011;775;51.958;7.976;2023-07-24T13:58:12;13.30;;;3.30;;
1563;SDS011;775;51.958;7.976;2023-07-24T14:00:39;13.60;;;3.37;;
1563;SDS011;775;51.958;7.976;2023-07-24T14:03:06;13.20;;;3.57;;
1563;SDS011;775;51.958;7.976;2023-07-24T14:05:33;13.30;;;3.50;;
1563;SDS011;775;51.958;7.976;2023-07-24T14:08:01;13.63;;;2.87;;
1563;SDS011;775;51.958;7.976;2023-07-24T14:10:28;13.27;;;2.93;;
1563;SDS011;775;51.958;7.976;2023-07-24T14:12:57;13.30;;;2.50;;
1563;SDS011;775;51.958;7.976;2023-07-24T14:15:24;13.00;;;3.47;;
1563;SDS011;775;51.958;7.976;2023-07-24T14:17:51;12.57;;;2.50;;
1563;SDS011;775;51.958;7.976;2023-07-24T14:20:18;15.23;;;2.90;;
1563;SDS011;775;51.958;7.976;2023-07-24T14:22:45;12.40;;;2.27;;
1563;SDS011;775;51.958;7.976;2023-07-24T14:25:12;12.73;;;2.37;;
1563;SDS011;775;51.958;7.976;2023-07-24T14:27:39;12.30;;;2.30;;
1563;SDS011;775;51.958;7.976;2023-07-24T14:30:09;12.13;;;2.80;;
1563;SDS011;775;51.958;7.976;2023-07-24T14:32:36;12.80;;;2.23;;
1563;SDS011;775;51.958;7.976;2023-07-24T14:35:03;12.13;;;2.80;;
1563;SDS011;775;51.958;7.976;2023-07-24T14:37:31;12.47;;;2.90;;
1563;SDS011;775;51.958;7.976;2023-07-24T14:39:58;12.17;;;2.83;;
1563;SDS011;775;51.958;7.976;2023-07-24T14:42:25;13.07;;;3.60;;
1563;SDS011;775;51.958;7.976;2023-07-24T14:44:52;12.97;;;3.10;;
1563;SDS011;775;51.958;7.976;2023-07-24T14:47:20;12.77;;;3.17;;
1563;SDS011;775;51.958;7.976;2023-07-24T14:49:47;13.40;;;3.73;;
1563;SDS011;775;51.958;7.976;2023-07-24T14:52:14;12.97;;;3.73;;
1563;SDS011;775;51.958;7.976;2023-07-24T14:54:42;13.23;;;3.90;;
1563;SDS011;775;51.958;7.976;2023-07-24T14:57:09;13.60;;;3.67;;
1563;SDS011;775;51.958;7.976;2023-07-24T14:59:36;12.90;;;3.83;;
1563;SDS011;775;51.958;7.976;2023-07-24T15:02:03;13.50;;;4.10;;
1563;SDS011;775;51.958;7.976;2023-07-24T15:04:33;14.70;;;4.20;;
1563;SDS011;775;51.958;7.976;2023-07-24T15:07:00;13.57;;;4.40;;
1563;SDS011;775;51.958;7.976;2023-07-24T15:09:27;13.20;;;4.20;;
1563;SDS011;775;51.958;7.976;2023-07-24T15:11:54;12.80;;;4.03;;
1563;SDS011;775;51.958;7.976;2023-07-24T15:14:23;15.13;;;4.47;;
1563;SDS011;775;51.958;7.976;2023-07-24T15:16:51;14.10;;;4.10;;
1563;SDS011;775;51.958;7.976;2023-07-24T15:19:18;13.80;;;4.17;;